createdAt,value
2022-12-24T06:43:03.337Z,3.35
2022-12-24T06:46:26.516Z,4.80
2022-12-24T06:49:48.325Z,5.85
2022-12-24T06:53:10.764Z,3.80
2022-12-24T06:56:32.679Z,3.75
2022-12-24T06:59:54.579Z,4.55
2022-12-24T07:03:16.518Z,3.25
2022-12-24T07:06:38.544Z,3.65
2022-12-24T07:10:00.423Z,3.28
2022-12-24T07:13:23.312Z,3.63
2022-12-24T07:16:50.473Z,3.58
2022-12-24T07:20:20.623Z,3.58
2022-12-24T07:23:42.648Z,3.60
2022-12-24T07:27:12.354Z,3.85
2022-12-24T07:30:34.199Z,3.13
2022-12-24T07:33:56.024Z,3.97
2022-12-24T07:37:17.879Z,3.38
2022-12-24T07:40:39.800Z,3.25
2022-12-24T07:44:02.862Z,3.72
2022-12-24T07:47:24.774Z,3.10
2022-12-24T07:50:49.274Z,2.95
2022-12-24T07:54:11.410Z,4.20
2022-12-24T07:57:33.373Z,3.33
2022-12-24T08:01:03.785Z,4.35
2022-12-24T08:04:27.676Z,5.18
2022-12-24T08:07:49.446Z,4.13
2022-12-24T08:11:13.854Z,4.28
2022-12-24T08:14:35.774Z,4.10
2022-12-24T08:17:57.732Z,4.35
2022-12-24T08:21:19.565Z,3.78
2022-12-24T08:24:41.545Z,3.90
2022-12-24T08:28:04.415Z,3.95
2022-12-24T08:31:26.266Z,3.03
2022-12-24T08:34:49.165Z,3.15
2022-12-24T08:38:11.028Z,3.60
2022-12-24T08:41:37.832Z,3.30
2022-12-24T08:45:00.403Z,3.03
2022-12-24T08:48:22.407Z,3.85
2022-12-24T08:51:52.081Z,3.13
2022-12-24T08:55:18.134Z,3.60
2022-12-24T08:58:40.055Z,3.35
2022-12-24T09:02:02.565Z,3.58
2022-12-24T09:05:31.833Z,4.40
2022-12-24T09:09:07.632Z,3.72
2022-12-24T09:12:29.568Z,3.92
2022-12-24T09:15:55.693Z,3.97
2022-12-24T09:19:17.667Z,5.18
2022-12-24T09:22:40.761Z,4.63
2022-12-24T09:26:15.126Z,5.28
2022-12-24T09:29:40.473Z,4.15
2022-12-24T09:33:04.409Z,5.45
2022-12-24T09:36:37.133Z,4.72
2022-12-24T09:39:59.040Z,4.05
2022-12-24T09:43:34.041Z,4.00
2022-12-24T09:47:01.220Z,3.95
2022-12-24T09:50:59.059Z,4.13
2022-12-24T09:54:47.728Z,3.72
2022-12-24T09:58:31.320Z,4.72
2022-12-24T10:01:55.937Z,5.90
2022-12-24T10:05:29.383Z,5.00
2022-12-24T10:09:13.370Z,4.90
2022-12-24T10:13:08.012Z,4.90
2022-12-24T10:17:10.128Z,4.68
2022-12-24T10:20:57.002Z,3.90
2022-12-24T10:24:32.449Z,3.92
2022-12-24T10:28:16.845Z,4.28
2022-12-24T10:31:56.854Z,5.15
2022-12-24T10:35:44.977Z,5.07
2022-12-24T10:39:25.661Z,3.85
2022-12-24T10:42:55.584Z,5.03
2022-12-24T10:46:36.312Z,4.82
2022-12-24T10:50:06.755Z,5.25
2022-12-24T10:53:40.138Z,4.15
2022-12-24T10:57:03.250Z,3.67
2022-12-24T11:00:33.562Z,4.68
2022-12-24T11:04:03.560Z,4.65
2022-12-24T11:07:32.024Z,4.05
2022-12-24T11:11:20.311Z,3.40
2022-12-24T11:14:59.347Z,3.28
2022-12-24T11:19:02.704Z,4.22
2022-12-24T11:22:32.606Z,3.50
2022-12-24T11:25:57.021Z,3.53
2022-12-24T11:29:27.067Z,3.35
2022-12-24T11:33:18.863Z,4.00
2022-12-24T11:36:40.759Z,3.47
2022-12-24T11:40:45.490Z,3.83
2022-12-24T11:44:12.455Z,4.20
2022-12-24T11:47:41.586Z,3.08
2022-12-24T11:51:18.778Z,4.53
2022-12-24T11:55:18.699Z,4.70
2022-12-24T11:58:53.506Z,3.95
2022-12-24T12:02:42.680Z,3.95
2022-12-24T12:06:23.782Z,3.80
2022-12-24T12:09:58.909Z,4.15
2022-12-24T12:13:33.937Z,3.55
2022-12-24T12:17:43.610Z,3.72
2022-12-24T12:21:14.202Z,3.20
2022-12-24T12:24:52.736Z,3.45
2022-12-24T12:28:44.319Z,3.78
2022-12-24T12:32:27.629Z,3.97
2022-12-24T12:35:54.871Z,3.97
2022-12-24T12:39:31.452Z,3.35
2022-12-24T12:43:14.461Z,3.17
2022-12-24T12:47:27.030Z,3.85
2022-12-24T12:51:26.938Z,3.70
2022-12-24T12:55:29.468Z,3.08
2022-12-24T12:59:08.073Z,2.97
2022-12-24T13:03:22.939Z,3.55
2022-12-24T13:07:17.536Z,3.47
2022-12-24T13:11:33.692Z,3.55
2022-12-24T13:15:14.232Z,3.72
2022-12-24T13:19:09.540Z,2.88
2022-12-24T13:22:37.531Z,2.47
2022-12-24T13:26:14.136Z,2.38
2022-12-24T13:29:53.477Z,2.85
2022-12-24T13:33:38.321Z,2.80
2022-12-24T13:37:04.508Z,3.30
2022-12-24T13:40:28.370Z,2.72
2022-12-24T13:44:20.504Z,3.63
2022-12-24T13:47:42.640Z,4.32
2022-12-24T13:51:26.107Z,3.45
2022-12-24T13:55:19.566Z,3.40
2022-12-24T13:58:50.266Z,3.05
2022-12-24T14:02:22.647Z,3.33
2022-12-24T14:05:44.561Z,2.92
2022-12-24T14:09:23.141Z,3.80
2022-12-24T14:12:52.911Z,2.90
2022-12-24T14:16:30.589Z,3.45
2022-12-24T14:20:02.314Z,3.05
2022-12-24T14:23:55.186Z,2.92
2022-12-24T14:27:50.503Z,3.17
2022-12-24T14:31:19.426Z,2.97
2022-12-24T14:35:15.023Z,2.97
2022-12-24T14:38:53.623Z,2.75
2022-12-24T14:43:09.193Z,2.92
2022-12-24T14:46:50.773Z,2.42
2022-12-24T14:50:39.603Z,2.47
2022-12-24T14:54:26.086Z,4.10
2022-12-24T14:58:26.885Z,3.53
2022-12-24T15:01:50.816Z,2.22
2022-12-24T15:05:19.475Z,2.05
2022-12-24T15:08:49.785Z,2.45
2022-12-24T15:12:13.467Z,2.67
2022-12-24T15:15:52.035Z,3.20
2022-12-24T15:19:36.005Z,2.78
2022-12-24T15:22:59.386Z,3.75
2022-12-24T15:26:24.923Z,2.70
2022-12-24T15:30:15.218Z,2.65
2022-12-24T15:33:38.159Z,4.03
2022-12-24T15:37:16.745Z,3.10
2022-12-24T15:40:38.655Z,2.78
2022-12-24T15:44:04.158Z,2.75
2022-12-24T15:47:52.781Z,3.55
2022-12-24T15:51:37.976Z,3.60
2022-12-24T15:55:03.076Z,2.88
2022-12-24T15:58:30.995Z,3.58
2022-12-24T16:01:55.386Z,4.18
2022-12-24T16:05:36.130Z,3.00
2022-12-24T16:08:58.683Z,2.90
2022-12-24T16:12:24.982Z,2.75
2022-12-24T16:15:56.451Z,3.45
2022-12-24T16:19:22.893Z,2.90
2022-12-24T16:22:47.705Z,3.35
2022-12-24T16:26:10.635Z,2.72
2022-12-24T16:29:32.513Z,3.58
2022-12-24T16:32:54.347Z,3.03
2022-12-24T16:36:16.157Z,3.33
2022-12-24T16:39:38.069Z,3.30
2022-12-24T16:43:18.395Z,3.28
2022-12-24T16:46:40.262Z,3.20
2022-12-24T16:50:06.831Z,3.30
2022-12-24T16:53:28.648Z,3.45
2022-12-24T16:56:50.817Z,3.33
2022-12-24T17:00:28.844Z,3.22
2022-12-24T17:03:50.794Z,5.53
2022-12-24T17:07:16.246Z,5.03
2022-12-24T17:10:41.049Z,5.43
2022-12-24T17:14:08.974Z,5.57
2022-12-24T17:17:32.873Z,7.20
2022-12-24T17:21:00.762Z,8.60
2022-12-24T17:24:22.602Z,5.25
2022-12-24T17:27:44.503Z,9.20
2022-12-24T17:31:10.002Z,4.03
2022-12-24T17:34:32.009Z,4.20
2022-12-24T17:37:53.845Z,5.38
2022-12-24T17:41:20.371Z,5.32
2022-12-24T17:44:42.204Z,5.30
2022-12-24T17:48:22.201Z,5.05
2022-12-24T17:51:45.899Z,4.72
2022-12-24T17:55:09.101Z,6.75
2022-12-24T17:58:31.348Z,9.82
2022-12-24T18:01:53.295Z,3.72
2022-12-24T18:05:25.479Z,5.03
2022-12-24T18:08:47.991Z,3.60
2022-12-24T18:12:10.368Z,4.10
2022-12-24T18:15:40.069Z,4.90
2022-12-24T18:19:04.191Z,4.20
2022-12-24T18:22:33.111Z,4.00
2022-12-24T18:26:12.557Z,5.30
2022-12-24T18:29:35.117Z,4.90
2022-12-24T18:32:57.004Z,5.38
2022-12-24T18:36:20.662Z,4.25
2022-12-24T18:39:44.295Z,3.65
2022-12-24T18:43:10.190Z,3.22
2022-12-24T18:46:34.064Z,3.05
2022-12-24T18:50:01.138Z,3.30
2022-12-24T18:53:23.563Z,3.85
2022-12-24T18:56:45.405Z,3.53
2022-12-24T19:00:26.145Z,2.30
2022-12-24T19:03:49.216Z,3.50
2022-12-24T19:07:11.134Z,4.32
2022-12-24T19:10:38.325Z,4.03
2022-12-24T19:14:01.940Z,3.97
2022-12-24T19:17:23.885Z,4.30
2022-12-24T19:20:54.020Z,3.58
2022-12-24T19:24:15.870Z,4.00
2022-12-24T19:27:37.733Z,5.07
2022-12-24T19:31:05.833Z,4.95
2022-12-24T19:34:28.462Z,5.15
2022-12-24T19:37:50.337Z,4.18
2022-12-24T19:41:19.661Z,2.90
2022-12-24T19:44:43.573Z,3.85
2022-12-24T19:48:05.936Z,4.07
2022-12-24T19:51:29.413Z,4.30
2022-12-24T19:54:53.422Z,4.70
2022-12-24T19:58:15.339Z,4.38
2022-12-24T20:01:37.489Z,4.65
2022-12-24T20:05:06.715Z,5.15
2022-12-24T20:08:30.498Z,3.83
2022-12-24T20:11:52.421Z,4.07
2022-12-24T20:15:14.315Z,3.97
2022-12-24T20:19:08.287Z,4.60
2022-12-24T20:22:30.131Z,5.05
2022-12-24T20:26:02.105Z,4.45
2022-12-24T20:29:24.064Z,5.35
2022-12-24T20:32:58.306Z,5.28
2022-12-24T20:36:23.868Z,5.10
2022-12-24T20:39:45.765Z,4.22
2022-12-24T20:43:13.881Z,5.20
2022-12-24T20:46:49.118Z,5.05
2022-12-24T20:50:11.084Z,4.78
2022-12-24T20:53:33.343Z,4.85
2022-12-24T20:57:01.125Z,5.88
2022-12-24T21:00:30.395Z,4.75
2022-12-24T21:03:54.611Z,4.32
2022-12-24T21:07:20.613Z,4.70
2022-12-24T21:10:46.848Z,4.57
2022-12-24T21:14:09.822Z,4.28
2022-12-24T21:17:31.763Z,3.67
2022-12-24T21:20:55.252Z,4.15
2022-12-24T21:24:19.455Z,4.60
2022-12-24T21:27:56.764Z,4.35
2022-12-24T21:31:18.917Z,4.22
2022-12-24T21:34:42.812Z,5.00
2022-12-24T21:38:15.388Z,4.28
2022-12-24T21:41:37.308Z,4.20
2022-12-24T21:44:59.633Z,3.47
2022-12-24T21:48:50.991Z,3.92
2022-12-24T21:52:12.928Z,3.97
2022-12-24T21:55:36.850Z,4.10
2022-12-24T21:59:01.846Z,5.32
2022-12-24T22:02:28.897Z,4.63
2022-12-24T22:05:59.249Z,4.18
2022-12-24T22:09:53.084Z,4.07
2022-12-24T22:13:20.042Z,4.40
2022-12-24T22:16:44.258Z,5.40
2022-12-24T22:20:09.351Z,4.20
2022-12-24T22:23:40.457Z,4.97
2022-12-24T22:27:15.395Z,4.20
2022-12-24T22:30:47.424Z,4.70
2022-12-24T22:34:45.392Z,5.22
2022-12-24T22:38:12.833Z,4.65
2022-12-24T22:41:54.986Z,4.53
2022-12-24T22:45:23.114Z,4.83
2022-12-24T22:49:02.585Z,5.85
2022-12-24T22:52:24.824Z,6.63
2022-12-24T22:56:15.551Z,5.95
2022-12-24T22:59:39.096Z,5.30
2022-12-24T23:03:01.059Z,4.00
2022-12-24T23:06:22.969Z,6.00
2022-12-24T23:09:44.805Z,6.35
2022-12-24T23:13:26.223Z,5.60
2022-12-24T23:16:48.157Z,5.43
2022-12-24T23:20:22.497Z,4.82
2022-12-24T23:23:52.579Z,4.60
2022-12-24T23:27:14.525Z,4.70
2022-12-24T23:30:37.562Z,5.25
2022-12-24T23:33:59.553Z,6.45
2022-12-24T23:37:29.573Z,5.82
2022-12-24T23:41:11.480Z,6.22
2022-12-24T23:44:33.341Z,5.95
2022-12-24T23:47:55.143Z,5.10
2022-12-24T23:51:23.381Z,5.57
2022-12-24T23:54:45.566Z,4.97
2022-12-24T23:58:15.214Z,5.53
